createdAt,value
2023-01-29T00:02:24.693Z,10.98
2023-01-29T00:05:26.879Z,10.95
2023-01-29T00:08:19.077Z,10.92
2023-01-29T00:11:11.220Z,10.89
2023-01-29T00:14:01.592Z,10.87
2023-01-29T00:16:52.255Z,10.85
2023-01-29T00:19:42.283Z,10.84
2023-01-29T00:22:34.614Z,10.83
2023-01-29T00:25:25.547Z,10.83
2023-01-29T00:28:16.446Z,10.83
2023-01-29T00:31:12.867Z,10.82
2023-01-29T00:34:03.814Z,10.84
2023-01-29T00:37:05.220Z,10.86
2023-01-29T00:39:55.859Z,10.86
2023-01-29T00:43:05.461Z,10.86
2023-01-29T00:45:56.622Z,10.86
2023-01-29T00:48:47.611Z,10.85
2023-01-29T00:51:39.344Z,10.86
2023-01-29T00:54:31.891Z,10.83
2023-01-29T00:57:23.546Z,10.82
2023-01-29T01:00:17.909Z,10.82
2023-01-29T01:03:08.381Z,10.81
2023-01-29T01:06:09.395Z,10.77
2023-01-29T01:09:17.242Z,10.74
2023-01-29T01:12:08.443Z,10.74
2023-01-29T01:14:59.502Z,10.74
2023-01-29T01:17:53.027Z,10.72
2023-01-29T01:20:43.749Z,10.71
2023-01-29T01:23:34.662Z,10.70
2023-01-29T01:26:25.262Z,10.69
2023-01-29T01:29:15.422Z,10.68
2023-01-29T01:32:06.168Z,10.67
2023-01-29T01:34:56.487Z,10.66
2023-01-29T01:37:46.579Z,10.65
2023-01-29T01:40:36.925Z,10.65
2023-01-29T01:43:27.763Z,10.64
2023-01-29T01:46:18.098Z,10.64
2023-01-29T01:49:13.099Z,10.64
2023-01-29T01:52:03.869Z,10.62
2023-01-29T01:54:55.206Z,10.60
2023-01-29T01:57:49.565Z,10.58
2023-01-29T02:00:40.534Z,10.56
2023-01-29T02:03:50.042Z,10.58
2023-01-29T02:07:00.743Z,10.62
2023-01-29T02:09:54.453Z,10.64
2023-01-29T02:12:47.201Z,10.65
2023-01-29T02:15:42.164Z,10.65
2023-01-29T02:18:38.191Z,10.65
2023-01-29T02:21:54.093Z,10.66
2023-01-29T02:25:17.112Z,10.67
2023-01-29T02:28:24.251Z,10.68
2023-01-29T02:31:25.702Z,10.69
2023-01-29T02:34:26.749Z,10.69
2023-01-29T02:37:18.371Z,10.70
2023-01-29T02:40:15.992Z,10.70
2023-01-29T02:43:16.856Z,10.71
2023-01-29T02:46:17.493Z,10.72
2023-01-29T02:49:19.404Z,10.71
2023-01-29T02:52:16.761Z,10.70
2023-01-29T02:55:14.485Z,10.72
2023-01-29T02:58:12.024Z,10.72
2023-01-29T03:01:06.274Z,10.72
2023-01-29T03:04:00.546Z,10.73
2023-01-29T03:06:56.221Z,10.74
2023-01-29T03:09:53.128Z,10.73
2023-01-29T03:12:48.161Z,10.72
2023-01-29T03:15:47.669Z,10.73
2023-01-29T03:18:56.406Z,10.74
2023-01-29T03:21:55.480Z,10.73
2023-01-29T03:25:06.471Z,10.72
2023-01-29T03:28:18.843Z,10.73
2023-01-29T03:31:32.251Z,10.72
2023-01-29T03:34:39.093Z,10.72
2023-01-29T03:37:36.089Z,10.72
2023-01-29T03:40:30.244Z,10.71
2023-01-29T03:43:32.339Z,10.71
2023-01-29T03:46:29.843Z,10.71
2023-01-29T03:49:25.446Z,10.69
2023-01-29T03:52:21.979Z,10.67
2023-01-29T03:55:19.084Z,10.65
2023-01-29T03:58:22.189Z,10.63
2023-01-29T04:01:20.603Z,10.64
2023-01-29T04:04:16.727Z,10.66
2023-01-29T04:07:12.446Z,10.67
2023-01-29T04:10:07.653Z,10.66
2023-01-29T04:13:04.182Z,10.65
2023-01-29T04:15:58.434Z,10.63
2023-01-29T04:19:08.821Z,10.60
2023-01-29T04:22:08.624Z,10.59
2023-01-29T04:25:02.972Z,10.58
2023-01-29T04:28:06.516Z,10.57
2023-01-29T04:31:04.841Z,10.58
2023-01-29T04:34:07.325Z,10.58
2023-01-29T04:37:10.560Z,10.57
2023-01-29T04:40:10.009Z,10.58
2023-01-29T04:43:08.204Z,10.58
2023-01-29T04:46:11.933Z,10.58
2023-01-29T04:49:19.877Z,10.58
2023-01-29T04:52:17.375Z,10.58
2023-01-29T04:55:15.433Z,10.58
2023-01-29T04:58:13.406Z,10.58
2023-01-29T05:01:06.971Z,10.60
2023-01-29T05:03:57.720Z,10.61
2023-01-29T05:06:49.093Z,10.60
2023-01-29T05:09:40.530Z,10.60
2023-01-29T05:12:32.524Z,10.59
2023-01-29T05:15:28.320Z,10.58
2023-01-29T05:18:19.367Z,10.56
2023-01-29T05:21:11.007Z,10.54
2023-01-29T05:24:13.875Z,10.51
2023-01-29T05:27:22.086Z,10.48
2023-01-29T05:30:15.334Z,10.46
2023-01-29T05:33:06.589Z,10.45
2023-01-29T05:35:57.981Z,10.44
2023-01-29T05:38:48.209Z,10.43
2023-01-29T05:41:38.570Z,10.43
2023-01-29T05:44:29.427Z,10.44
2023-01-29T05:47:23.692Z,10.43
2023-01-29T05:50:15.898Z,10.41
2023-01-29T05:53:07.039Z,10.39
2023-01-29T05:55:57.872Z,10.39
2023-01-29T05:58:48.561Z,10.39
2023-01-29T06:01:39.003Z,10.39
2023-01-29T06:04:29.806Z,10.38
2023-01-29T06:07:20.513Z,10.37
2023-01-29T06:10:13.049Z,10.35
2023-01-29T06:13:03.900Z,10.30
2023-01-29T06:15:54.870Z,10.28
2023-01-29T06:18:45.474Z,10.26
2023-01-29T06:21:35.536Z,10.23
2023-01-29T06:24:26.519Z,10.22
2023-01-29T06:27:17.082Z,10.21
2023-01-29T06:30:09.160Z,10.19
2023-01-29T06:33:01.771Z,10.15
2023-01-29T06:35:56.357Z,10.14
2023-01-29T06:38:47.485Z,10.13
2023-01-29T06:41:37.856Z,10.12
2023-01-29T06:44:27.831Z,10.13
2023-01-29T06:47:18.739Z,10.15
2023-01-29T06:50:10.164Z,10.17
2023-01-29T06:53:01.832Z,10.18
2023-01-29T06:55:55.747Z,10.20
2023-01-29T06:58:46.945Z,10.21
2023-01-29T07:01:41.158Z,10.13
2023-01-29T07:04:31.710Z,10.06
2023-01-29T07:07:21.825Z,10.03
2023-01-29T07:10:13.558Z,10.02
2023-01-29T07:13:04.210Z,10.01
2023-01-29T07:15:55.224Z,10.06
2023-01-29T07:18:45.773Z,10.12
2023-01-29T07:21:35.931Z,10.13
2023-01-29T07:24:26.768Z,10.16
2023-01-29T07:27:17.139Z,10.14
2023-01-29T07:30:11.824Z,10.12
2023-01-29T07:33:08.224Z,10.12
2023-01-29T07:35:59.006Z,10.05
2023-01-29T07:38:52.039Z,10.08
2023-01-29T07:41:42.147Z,10.18
2023-01-29T07:44:39.187Z,10.39
2023-01-29T07:47:29.504Z,10.48
2023-01-29T07:50:20.539Z,10.60
2023-01-29T07:53:16.068Z,10.65
2023-01-29T07:56:06.802Z,10.75
2023-01-29T07:58:57.300Z,10.82
2023-01-29T08:01:47.548Z,10.94
2023-01-29T08:04:38.045Z,11.03
2023-01-29T08:07:27.953Z,11.14
2023-01-29T08:10:19.412Z,11.23
2023-01-29T08:13:10.232Z,11.31
2023-01-29T08:16:04.489Z,11.40
2023-01-29T08:18:54.825Z,11.47
2023-01-29T08:21:44.976Z,11.55
2023-01-29T08:24:47.654Z,11.67
2023-01-29T08:27:44.480Z,11.81
2023-01-29T08:30:36.926Z,11.98
2023-01-29T08:33:38.689Z,12.17
2023-01-29T08:36:29.483Z,12.32
2023-01-29T08:39:21.262Z,12.48
2023-01-29T08:42:11.982Z,12.64
2023-01-29T08:45:02.553Z,12.82
2023-01-29T08:47:52.934Z,13.00
2023-01-29T08:50:43.107Z,13.25
2023-01-29T08:53:33.531Z,13.74
2023-01-29T08:56:24.092Z,14.97
2023-01-29T08:59:15.222Z,16.54
2023-01-29T09:02:05.356Z,18.17
2023-01-29T09:04:55.163Z,19.70
2023-01-29T09:07:45.359Z,21.06
2023-01-29T09:10:35.233Z,21.94
2023-01-29T09:13:25.756Z,22.24
2023-01-29T09:16:15.780Z,22.32
2023-01-29T09:19:05.990Z,22.32
2023-01-29T09:21:56.421Z,22.18
2023-01-29T09:24:46.508Z,21.90
2023-01-29T09:27:36.939Z,21.58
2023-01-29T09:30:27.283Z,21.26
2023-01-29T09:33:18.402Z,20.91
2023-01-29T09:36:10.477Z,20.60
2023-01-29T09:39:02.073Z,20.42
2023-01-29T09:41:58.523Z,20.27
2023-01-29T09:44:58.695Z,20.10
2023-01-29T09:47:50.508Z,19.98
2023-01-29T09:50:45.616Z,19.91
2023-01-29T09:53:42.170Z,19.86
2023-01-29T09:56:33.897Z,19.84
2023-01-29T09:59:28.236Z,19.87
2023-01-29T10:02:40.167Z,19.91
2023-01-29T10:05:51.970Z,19.90
2023-01-29T10:09:16.280Z,19.87
2023-01-29T10:12:20.446Z,19.88
2023-01-29T10:15:22.764Z,19.92
2023-01-29T10:18:34.871Z,19.94
2023-01-29T10:21:38.989Z,19.97
2023-01-29T10:24:39.408Z,19.98
2023-01-29T10:27:38.515Z,19.97
2023-01-29T10:30:36.031Z,19.99
2023-01-29T10:33:49.646Z,20.01
2023-01-29T10:36:46.182Z,19.99
2023-01-29T10:39:36.284Z,19.97
2023-01-29T10:42:35.445Z,19.95
2023-01-29T10:45:33.118Z,19.95
2023-01-29T10:48:41.934Z,19.95
2023-01-29T10:51:48.545Z,19.95
2023-01-29T10:54:55.490Z,19.91
2023-01-29T10:58:02.873Z,19.87
2023-01-29T11:00:53.726Z,19.89
2023-01-29T11:03:44.275Z,19.90
2023-01-29T11:06:36.359Z,19.88
2023-01-29T11:09:34.577Z,19.77
2023-01-29T11:12:30.815Z,19.65
2023-01-29T11:15:25.911Z,19.58
2023-01-29T11:18:17.941Z,19.58
2023-01-29T11:21:08.267Z,19.47
2023-01-29T11:24:18.808Z,19.32
2023-01-29T11:27:23.176Z,19.00
2023-01-29T11:30:21.355Z,18.92
2023-01-29T11:33:14.131Z,18.96
2023-01-29T11:36:29.374Z,18.85
2023-01-29T11:39:23.133Z,18.86
2023-01-29T11:42:23.223Z,18.90
2023-01-29T11:45:30.109Z,18.72
2023-01-29T11:48:22.434Z,18.62
2023-01-29T11:51:22.094Z,18.65
2023-01-29T11:54:21.026Z,18.75
2023-01-29T11:57:27.755Z,18.89
2023-01-29T12:00:25.269Z,18.98
2023-01-29T12:03:25.024Z,19.06
2023-01-29T12:06:22.582Z,19.17
2023-01-29T12:09:18.023Z,19.32
2023-01-29T12:12:29.036Z,19.44
2023-01-29T12:15:25.650Z,19.46
2023-01-29T12:18:24.917Z,19.58
2023-01-29T12:21:21.905Z,19.75
2023-01-29T12:24:26.531Z,19.87
2023-01-29T12:27:24.054Z,19.98
2023-01-29T12:30:21.455Z,20.12
2023-01-29T12:33:25.139Z,20.12
2023-01-29T12:36:22.707Z,20.13
2023-01-29T12:39:17.919Z,20.18
2023-01-29T12:42:13.344Z,20.19
2023-01-29T12:45:08.313Z,20.08
2023-01-29T12:48:02.647Z,20.03
2023-01-29T12:50:54.466Z,19.99
2023-01-29T12:53:49.323Z,19.98
2023-01-29T12:56:43.736Z,19.98
2023-01-29T12:59:39.116Z,20.02
2023-01-29T13:02:36.871Z,20.00
2023-01-29T13:05:31.451Z,19.95
2023-01-29T13:08:25.210Z,19.86
2023-01-29T13:11:22.425Z,19.82
2023-01-29T13:14:20.781Z,19.78
2023-01-29T13:17:15.739Z,19.79
2023-01-29T13:20:15.116Z,19.79
2023-01-29T13:23:27.250Z,19.79
2023-01-29T13:26:21.118Z,19.68
2023-01-29T13:29:24.941Z,19.61
2023-01-29T13:32:21.411Z,19.55
2023-01-29T13:35:17.684Z,19.48
2023-01-29T13:38:23.498Z,19.31
2023-01-29T13:41:15.047Z,19.23
2023-01-29T13:44:07.735Z,19.24
2023-01-29T13:47:02.898Z,19.12
2023-01-29T13:50:01.406Z,18.89
2023-01-29T13:52:57.963Z,18.78
2023-01-29T13:55:48.787Z,18.69
2023-01-29T13:58:58.485Z,18.63
2023-01-29T14:02:23.717Z,18.60
2023-01-29T14:05:42.180Z,18.52
2023-01-29T14:08:45.390Z,18.29
2023-01-29T14:11:39.259Z,18.19
2023-01-29T14:14:53.239Z,18.23
2023-01-29T14:17:55.241Z,18.26
2023-01-29T14:20:55.439Z,18.21
2023-01-29T14:23:48.975Z,18.14
2023-01-29T14:26:46.082Z,18.10
2023-01-29T14:29:42.956Z,18.04
2023-01-29T14:32:33.902Z,17.94
2023-01-29T14:35:27.046Z,17.79
2023-01-29T14:38:17.901Z,17.64
2023-01-29T14:41:17.574Z,17.47
2023-01-29T14:44:42.789Z,17.40
2023-01-29T14:47:58.275Z,17.32
2023-01-29T14:51:12.404Z,17.25
2023-01-29T14:54:07.399Z,17.17
2023-01-29T14:57:02.747Z,17.02
2023-01-29T14:59:59.075Z,16.78
2023-01-29T15:02:59.867Z,16.57
2023-01-29T15:05:53.270Z,16.44
2023-01-29T15:08:48.488Z,16.35
2023-01-29T15:11:45.542Z,16.28
2023-01-29T15:14:37.934Z,16.21
2023-01-29T15:17:34.297Z,16.13
2023-01-29T15:20:32.737Z,16.05
2023-01-29T15:23:29.563Z,15.97
2023-01-29T15:26:26.002Z,15.91
2023-01-29T15:29:27.213Z,15.87
2023-01-29T15:32:30.961Z,15.82
2023-01-29T15:35:31.135Z,15.77
2023-01-29T15:38:23.141Z,15.73
2023-01-29T15:41:20.905Z,15.69
2023-01-29T15:44:18.740Z,15.65
2023-01-29T15:47:11.199Z,15.61
2023-01-29T15:50:03.101Z,15.56
2023-01-29T15:52:55.870Z,15.50
2023-01-29T15:55:47.569Z,15.45
2023-01-29T15:58:38.029Z,15.38
2023-01-29T16:01:31.451Z,15.32
2023-01-29T16:04:26.939Z,15.26
2023-01-29T16:07:17.044Z,15.19
2023-01-29T16:10:09.077Z,15.13
2023-01-29T16:13:00.094Z,15.06
2023-01-29T16:15:59.880Z,15.00
2023-01-29T16:19:00.140Z,14.94
2023-01-29T16:21:57.211Z,14.86
2023-01-29T16:24:47.973Z,14.78
2023-01-29T16:27:38.346Z,14.72
2023-01-29T16:30:29.894Z,14.66
2023-01-29T16:33:21.696Z,14.60
2023-01-29T16:36:18.436Z,14.54
2023-01-29T16:39:19.891Z,14.47
2023-01-29T16:42:31.147Z,14.39
2023-01-29T16:45:31.480Z,14.32
2023-01-29T16:48:32.191Z,14.25
2023-01-29T16:51:27.050Z,14.19
2023-01-29T16:54:19.822Z,14.13
2023-01-29T16:57:16.672Z,14.06
2023-01-29T17:00:19.621Z,13.97
2023-01-29T17:03:13.536Z,13.89
2023-01-29T17:06:13.017Z,13.83
2023-01-29T17:09:03.930Z,13.77
2023-01-29T17:11:57.995Z,13.71
2023-01-29T17:14:58.286Z,13.64
2023-01-29T17:17:49.997Z,13.56
2023-01-29T17:20:40.178Z,13.48
2023-01-29T17:23:30.814Z,13.40
2023-01-29T17:26:24.757Z,13.32
2023-01-29T17:29:20.223Z,13.24
2023-01-29T17:32:12.434Z,13.18
2023-01-29T17:35:02.503Z,13.13
2023-01-29T17:37:53.284Z,13.08
2023-01-29T17:40:47.698Z,13.04
2023-01-29T17:43:37.502Z,13.00
2023-01-29T17:46:28.629Z,12.97
2023-01-29T17:49:25.139Z,12.91
2023-01-29T17:52:15.048Z,12.84
2023-01-29T17:55:05.595Z,12.79
2023-01-29T17:57:55.842Z,12.77
2023-01-29T18:00:45.993Z,12.74
2023-01-29T18:03:36.334Z,12.70
2023-01-29T18:06:29.754Z,12.65
2023-01-29T18:09:22.848Z,12.61
2023-01-29T18:12:14.493Z,12.58
2023-01-29T18:15:05.064Z,12.54
2023-01-29T18:17:55.466Z,12.50
2023-01-29T18:20:45.684Z,12.47
2023-01-29T18:23:35.940Z,12.45
2023-01-29T18:26:26.712Z,12.41
2023-01-29T18:29:16.977Z,12.37
2023-01-29T18:32:08.426Z,12.34
2023-01-29T18:34:59.738Z,12.32
2023-01-29T18:37:50.374Z,12.30
2023-01-29T18:40:40.584Z,12.29
2023-01-29T18:43:30.290Z,12.27
2023-01-29T18:46:20.841Z,12.25
2023-01-29T18:49:11.674Z,12.23
2023-01-29T18:52:01.607Z,12.22
2023-01-29T18:54:52.012Z,12.19
2023-01-29T18:58:26.096Z,12.16
2023-01-29T19:00:53.312Z,12.10
2023-01-29T19:03:44.558Z,12.05
2023-01-29T19:06:37.201Z,12.01
2023-01-29T19:09:28.923Z,11.99
2023-01-29T19:12:19.205Z,11.96
2023-01-29T19:15:14.382Z,11.95
2023-01-29T19:18:04.427Z,11.93
2023-01-29T19:20:55.352Z,11.90
2023-01-29T19:23:46.170Z,11.89
2023-01-29T19:26:36.504Z,11.88
2023-01-29T19:29:28.712Z,11.87
2023-01-29T19:32:19.220Z,11.85
2023-01-29T19:35:10.253Z,11.84
2023-01-29T19:38:00.547Z,11.84
2023-01-29T19:40:51.380Z,11.82
2023-01-29T19:43:42.187Z,11.81
2023-01-29T19:46:32.425Z,11.81
2023-01-29T19:49:22.655Z,11.80
2023-01-29T19:52:49.864Z,11.80
2023-01-29T19:55:40.582Z,11.79
2023-01-29T19:58:31.036Z,11.79
2023-01-29T20:01:22.577Z,11.79
2023-01-29T20:04:12.702Z,11.79
2023-01-29T20:07:02.456Z,11.79
2023-01-29T20:09:52.826Z,11.80
2023-01-29T20:12:43.814Z,11.80
2023-01-29T20:15:35.835Z,11.78
2023-01-29T20:18:26.415Z,11.76
2023-01-29T20:21:18.396Z,11.74
2023-01-29T20:24:12.865Z,11.72
2023-01-29T20:27:03.406Z,11.70
2023-01-29T20:29:53.308Z,11.66
2023-01-29T20:32:43.551Z,11.63
2023-01-29T20:35:34.814Z,11.62
2023-01-29T20:38:26.217Z,11.60
2023-01-29T20:41:18.667Z,11.58
2023-01-29T20:44:09.945Z,11.54
2023-01-29T20:47:02.784Z,11.51
2023-01-29T20:49:53.306Z,11.46
2023-01-29T20:52:44.093Z,11.44
2023-01-29T20:55:34.342Z,11.42
2023-01-29T20:58:24.537Z,11.39
2023-01-29T21:01:17.049Z,11.36
2023-01-29T21:04:07.427Z,11.34
2023-01-29T21:06:57.538Z,11.32
2023-01-29T21:09:47.699Z,11.30
2023-01-29T21:12:38.103Z,11.27
2023-01-29T21:15:28.078Z,11.25
2023-01-29T21:18:18.268Z,11.24
2023-01-29T21:21:09.267Z,11.25
2023-01-29T21:23:59.585Z,11.25
2023-01-29T21:26:50.254Z,11.25
2023-01-29T21:29:40.707Z,11.25
2023-01-29T21:32:30.773Z,11.23
2023-01-29T21:35:21.455Z,11.22
2023-01-29T21:38:11.374Z,11.21
2023-01-29T21:41:06.707Z,11.17
2023-01-29T21:43:56.409Z,11.15
2023-01-29T21:46:47.677Z,11.14
2023-01-29T21:49:38.413Z,11.13
2023-01-29T21:52:28.983Z,11.12
2023-01-29T21:55:19.187Z,11.10
2023-01-29T21:58:09.515Z,11.09
2023-01-29T22:01:35.596Z,11.07
2023-01-29T22:04:11.895Z,11.03
2023-01-29T22:07:02.284Z,11.01
2023-01-29T22:09:52.830Z,10.99
2023-01-29T22:12:44.028Z,10.98
2023-01-29T22:15:34.727Z,10.95
2023-01-29T22:18:25.363Z,10.95
2023-01-29T22:21:16.031Z,10.95
2023-01-29T22:24:07.678Z,10.95
2023-01-29T22:26:57.997Z,10.93
2023-01-29T22:29:47.891Z,10.91
2023-01-29T22:32:37.683Z,10.90
2023-01-29T22:35:28.041Z,10.89
2023-01-29T22:38:18.058Z,10.86
2023-01-29T22:41:08.164Z,10.84
2023-01-29T22:43:58.719Z,10.83
2023-01-29T22:46:49.723Z,10.81
2023-01-29T22:49:40.325Z,10.77
2023-01-29T22:52:38.716Z,10.75
2023-01-29T22:55:28.904Z,10.73
2023-01-29T22:58:18.824Z,10.71
2023-01-29T23:01:11.966Z,10.68
2023-01-29T23:04:02.498Z,10.64
2023-01-29T23:06:52.306Z,10.61
2023-01-29T23:09:43.735Z,10.60
2023-01-29T23:12:34.045Z,10.57
2023-01-29T23:15:24.210Z,10.54
2023-01-29T23:18:14.430Z,10.52
2023-01-29T23:21:05.039Z,10.50
2023-01-29T23:23:55.674Z,10.49
2023-01-29T23:27:03.444Z,10.48
2023-01-29T23:29:53.494Z,10.49
2023-01-29T23:32:43.783Z,10.48
2023-01-29T23:35:34.170Z,10.47
2023-01-29T23:38:24.689Z,10.46
2023-01-29T23:41:14.799Z,10.45
2023-01-29T23:44:05.788Z,10.43
2023-01-29T23:46:56.188Z,10.42
2023-01-29T23:49:46.311Z,10.41
2023-01-29T23:52:36.547Z,10.39
2023-01-29T23:55:26.957Z,10.37
2023-01-29T23:58:17.174Z,10.35
